Hauptseite
METAR-TAF:

METAR-TAF

Flughäfen :

Flughafen Berlin-Tegel

Berlin, Deutschland

Breite: 52-34N, Länge: 013-19E, Höhe: 37 m

Beobachtung

Neuester Wetterbericht von vor 10 Minuten, um 12:20 UTC
Wind 11 kt aus West/Nordwest, variierte zwischen West und Nord/Nordwest
Temperatur 26°C
Luftfeuchtigkeit 45%
Luftdruck 1014 hPa
Sichtweite 10 km oder mehr
keine Wolken unter 1500 m und keine Kumulonimbus oder Gewitterwolken

METAR: EDDT 181220Z 29011KT 260V340 CAVOK 26/13 Q1014 NOSIG

Zeit: 14:30 (12:30 UTC)

Prognose

Neuester Wetterbericht von vor 1 Stunde und 30 Minuten, um 11:00 UTC
Gültige Prognose vom 18 um 12 UTC bis 19 um 12 UTC
Wind 11 kt aus West/Nordwest
Sichtweite 10 km oder mehr
keine Wolken unter 1500 m und keine Kumulonimbus oder Gewitterwolken
Übergehend zu
vom 18 um 17 UTC bis 18 um 19 UTC
Wind 6 kt aus West/Nordwest

TAF: EDDT 181100Z 1812/1912 30011KT CAVOK BECMG 1817/1819 30006KT

Wetterbeobachtungen und Prognosen von mehr als 4000 Flughäfen (METAR und TAF Bericht).

Die verfügbaren Stationen werden durch gelbe und rote Markierungen auf der Karte dargestellt.

Führen Sie die Maus auf sie, um den Namen der Station zu sehen.

Darauf klicken, um die Beobachtung von Wetterbeobachtungen und Prognosen zu sehen.

Um die Karte zu ändern : klicken Sie auf den grünen Tasten mit einem schwarzen Kreuz Zum Vergrößern, auf den grünen Button mit einem Gedankenstrich zu verkleinern, oder auf die grünen Pfeile für benachbarte Karten.


METAR-TAF: